createdAt,value
2022-08-05T00:00:18.398Z,25.67
2022-08-05T00:02:51.767Z,25.67
2022-08-05T00:06:02.940Z,25.76
2022-08-05T00:08:34.061Z,25.64
2022-08-05T00:11:00.279Z,25.66
2022-08-05T00:13:38.981Z,25.63
2022-08-05T00:16:12.602Z,25.54
2022-08-05T00:18:42.381Z,25.58
2022-08-05T00:21:12.692Z,25.52
2022-08-05T00:23:46.250Z,25.56
2022-08-05T00:26:22.157Z,25.56
2022-08-05T00:28:50.601Z,25.47
2022-08-05T00:31:53.862Z,25.42
2022-08-05T00:34:55.584Z,25.33
2022-08-05T00:37:12.908Z,25.31
2022-08-05T00:39:57.198Z,25.26
2022-08-05T00:42:31.666Z,25.25
2022-08-05T00:45:00.628Z,25.16
2022-08-05T00:47:53.219Z,25.09
2022-08-05T00:50:15.801Z,25.21
2022-08-05T00:52:45.384Z,25.03
2022-08-05T00:55:14.023Z,25.13
2022-08-05T00:57:58.607Z,25.08
2022-08-05T01:00:29.128Z,25.01
2022-08-05T01:02:59.740Z,24.99
2022-08-05T01:05:27.723Z,25.06
2022-08-05T01:08:40.147Z,24.98
2022-08-05T01:10:52.877Z,24.94
2022-08-05T01:13:58.456Z,24.89
2022-08-05T01:16:37.578Z,24.80
2022-08-05T01:19:56.827Z,24.80
2022-08-05T01:22:57.385Z,24.73
2022-08-05T01:25:50.268Z,24.65
2022-08-05T01:28:39.739Z,24.64
2022-08-05T01:31:14.900Z,24.49
2022-08-05T01:34:10.809Z,24.51
2022-08-05T01:36:47.724Z,24.47
2022-08-05T01:39:46.223Z,24.48
2022-08-05T01:42:09.715Z,24.35
2022-08-05T01:44:39.130Z,24.34
2022-08-05T01:47:09.628Z,24.26
2022-08-05T01:50:00.145Z,24.27
2022-08-05T01:52:28.193Z,24.32
2022-08-05T01:55:01.549Z,24.22
2022-08-05T01:58:11.255Z,24.08
2022-08-05T02:00:30.698Z,24.13
2022-08-05T02:03:05.540Z,24.14
2022-08-05T02:05:36.836Z,24.28
2022-08-05T02:08:05.631Z,24.31
2022-08-05T02:10:41.745Z,24.30
2022-08-05T02:13:53.811Z,24.13
2022-08-05T02:16:34.276Z,24.07
2022-08-05T02:19:12.284Z,24.08
2022-08-05T02:21:49.147Z,23.99
2022-08-05T02:24:23.212Z,23.96
2022-08-05T02:26:55.639Z,23.92
2022-08-05T02:29:58.830Z,23.88
2022-08-05T02:32:19.934Z,23.85
2022-08-05T02:34:54.903Z,23.90
2022-08-05T02:37:24.054Z,23.85
2022-08-05T02:39:53.552Z,23.85
2022-08-05T02:42:25.658Z,23.79
2022-08-05T02:44:54.454Z,23.88
2022-08-05T02:47:22.609Z,23.85
2022-08-05T02:49:50.801Z,23.85
2022-08-05T02:52:29.996Z,23.79
2022-08-05T02:55:01.783Z,23.69
2022-08-05T02:58:09.287Z,23.72
2022-08-05T03:00:21.345Z,23.72
2022-08-05T03:02:48.866Z,23.65
2022-08-05T03:05:17.134Z,23.57
2022-08-05T03:08:06.796Z,23.66
2022-08-05T03:10:34.740Z,23.54
2022-08-05T03:15:28.015Z,23.39
2022-08-05T03:17:57.640Z,23.36
2022-08-05T03:20:25.459Z,23.27
2022-08-05T03:22:57.066Z,23.18
2022-08-05T03:25:33.904Z,22.99
2022-08-05T03:28:14.834Z,22.92
2022-08-05T03:30:49.049Z,22.85
2022-08-05T03:33:17.793Z,22.75
2022-08-05T03:35:46.517Z,22.71
2022-08-05T03:38:14.971Z,22.76
2022-08-05T03:40:45.132Z,22.62
2022-08-05T03:43:58.284Z,22.58
2022-08-05T03:46:03.329Z,22.54
2022-08-05T03:48:35.671Z,22.46
2022-08-05T03:52:48.929Z,22.38
2022-08-05T03:55:49.774Z,22.41
2022-08-05T03:57:16.493Z,22.37
2022-08-05T04:00:07.451Z,22.37
2022-08-05T04:02:52.123Z,22.40
2022-08-05T04:05:33.164Z,22.42
2022-08-05T04:08:14.757Z,22.43
2022-08-05T04:10:55.543Z,22.49
2022-08-05T04:13:23.497Z,22.50
2022-08-05T04:16:03.281Z,22.51
2022-08-05T04:18:32.343Z,22.57
2022-08-05T04:21:03.796Z,22.60
2022-08-05T04:24:05.015Z,22.59
2022-08-05T04:26:20.237Z,22.60
2022-08-05T04:28:51.945Z,22.81
2022-08-05T04:31:20.087Z,23.04
2022-08-05T04:34:17.690Z,23.12
2022-08-05T04:36:45.577Z,23.09
2022-08-05T04:39:18.639Z,23.06
2022-08-05T04:41:48.117Z,23.08
2022-08-05T04:44:21.228Z,22.96
2022-08-05T04:47:09.588Z,23.05
2022-08-05T04:50:01.574Z,23.17
2022-08-05T04:52:27.463Z,23.04
2022-08-05T04:54:57.298Z,23.18
2022-08-05T04:57:29.002Z,23.37
2022-08-05T04:59:58.671Z,23.29
2022-08-05T05:02:36.594Z,23.29
2022-08-05T05:05:16.929Z,23.50
2022-08-05T05:08:02.061Z,23.55
2022-08-05T05:10:38.908Z,23.45
2022-08-05T05:13:09.922Z,23.45
2022-08-05T05:15:56.510Z,23.63
2022-08-05T05:18:31.158Z,23.58
2022-08-05T05:21:02.107Z,23.64
2022-08-05T05:24:02.310Z,23.84
2022-08-05T05:26:17.926Z,23.76
2022-08-05T05:28:45.353Z,23.82
2022-08-05T05:31:12.991Z,24.10
2022-08-05T05:33:43.383Z,24.28
2022-08-05T05:36:28.785Z,24.25
2022-08-05T05:38:57.881Z,24.18
2022-08-05T05:41:26.142Z,24.27
2022-08-05T05:44:37.377Z,24.44
2022-08-05T05:46:55.315Z,24.63
2022-08-05T05:49:26.266Z,24.95
2022-08-05T05:51:56.449Z,25.06
2022-08-05T05:54:34.990Z,25.03
2022-08-05T05:57:13.776Z,25.02
2022-08-05T05:59:47.014Z,25.29
2022-08-05T06:02:16.464Z,25.49
2022-08-05T06:04:44.315Z,25.61
2022-08-05T06:07:16.596Z,25.72
2022-08-05T06:10:01.408Z,25.52
2022-08-05T06:12:34.916Z,25.42
2022-08-05T06:15:13.533Z,25.62
2022-08-05T06:17:53.412Z,26.01
2022-08-05T06:20:21.916Z,25.93
2022-08-05T06:22:49.143Z,25.95
2022-08-05T06:25:59.095Z,25.82
2022-08-05T06:28:12.552Z,25.91
2022-08-05T06:30:49.124Z,25.90
2022-08-05T06:33:19.331Z,25.89
2022-08-05T06:36:03.814Z,25.72
2022-08-05T06:38:37.056Z,25.84
2022-08-05T06:41:05.459Z,26.06
2022-08-05T06:43:57.507Z,26.15
2022-08-05T06:46:30.418Z,26.06
2022-08-05T06:48:59.755Z,25.81
2022-08-05T06:51:30.759Z,25.48
2022-08-05T06:53:59.771Z,25.38
2022-08-05T06:56:34.446Z,25.17
2022-08-05T06:59:08.642Z,25.01
2022-08-05T07:01:37.477Z,25.21
2022-08-05T07:04:08.829Z,25.19
2022-08-05T07:06:36.214Z,25.36
2022-08-05T07:09:04.666Z,25.23
2022-08-05T07:11:36.970Z,25.33
2022-08-05T07:14:29.395Z,25.52
2022-08-05T07:18:02.423Z,25.76
2022-08-05T07:22:41.916Z,25.57
2022-08-05T07:25:54.122Z,25.51
2022-08-05T07:28:05.356Z,25.44
2022-08-05T07:30:39.207Z,25.09
2022-08-05T07:33:15.466Z,25.21
2022-08-05T07:36:01.939Z,25.32
2022-08-05T07:38:34.033Z,25.24
2022-08-05T07:42:08.122Z,25.26
2022-08-05T07:43:57.180Z,25.56
2022-08-05T07:46:26.835Z,25.89
2022-08-05T07:49:03.654Z,25.83
2022-08-05T07:51:40.411Z,25.93
2022-08-05T07:54:09.708Z,25.78
2022-08-05T07:56:39.375Z,25.55
2022-08-05T07:59:38.673Z,25.26
2022-08-05T08:02:15.916Z,25.40
2022-08-05T08:04:46.342Z,25.65
2022-08-05T08:07:14.114Z,25.87
2022-08-05T08:09:43.227Z,25.81
2022-08-05T08:12:33.378Z,25.63
2022-08-05T08:15:02.743Z,25.51
2022-08-05T08:17:32.816Z,25.39
2022-08-05T08:20:23.059Z,25.51
2022-08-05T08:22:53.263Z,25.71
2022-08-05T08:25:26.930Z,26.02
2022-08-05T08:28:18.390Z,26.19
2022-08-05T08:30:58.409Z,26.10
2022-08-05T08:33:25.503Z,26.12
2022-08-05T08:36:12.959Z,26.28
2022-08-05T08:38:42.342Z,26.59
2022-08-05T08:41:22.521Z,26.93
2022-08-05T08:45:25.407Z,27.05
2022-08-05T08:46:44.171Z,26.89
2022-08-05T08:50:23.043Z,26.86
2022-08-05T08:52:13.723Z,26.85
2022-08-05T08:54:43.531Z,27.08
2022-08-05T08:57:13.754Z,27.28
2022-08-05T08:59:41.729Z,27.20
2022-08-05T09:02:16.694Z,27.16
2022-08-05T09:04:57.783Z,27.51
2022-08-05T09:07:40.055Z,27.70
2022-08-05T09:10:22.190Z,27.93
2022-08-05T09:12:56.940Z,28.08
2022-08-05T09:15:37.196Z,27.70
2022-08-05T09:18:09.794Z,27.43
2022-08-05T09:20:44.502Z,27.57
2022-08-05T09:23:19.626Z,27.72
2022-08-05T09:26:03.069Z,27.94
2022-08-05T09:28:35.433Z,28.21
2022-08-05T09:31:22.661Z,28.38
2022-08-05T09:34:01.805Z,28.23
2022-08-05T09:36:45.818Z,28.08
2022-08-05T09:39:39.178Z,28.15
2022-08-05T09:42:23.232Z,28.29
2022-08-05T09:44:55.999Z,28.20
2022-08-05T09:47:48.507Z,28.13
2022-08-05T09:50:38.703Z,28.16
2022-08-05T09:53:07.198Z,28.24
2022-08-05T09:55:57.457Z,28.23
2022-08-05T09:58:24.694Z,28.11
2022-08-05T10:01:13.482Z,28.27
2022-08-05T10:04:03.655Z,28.47
2022-08-05T10:06:31.891Z,28.67
2022-08-05T10:09:25.314Z,28.83
2022-08-05T10:12:31.080Z,28.68
2022-08-05T10:14:54.401Z,28.54
2022-08-05T10:17:37.632Z,28.95
2022-08-05T10:20:18.262Z,29.14
2022-08-05T10:22:51.109Z,29.32
2022-08-05T10:25:19.490Z,29.51
2022-08-05T10:28:13.129Z,29.54
2022-08-05T10:31:20.867Z,29.55
2022-08-05T10:33:28.786Z,29.37
2022-08-05T10:35:59.649Z,29.32
2022-08-05T10:38:29.246Z,29.22
2022-08-05T10:41:44.981Z,29.74
2022-08-05T10:44:18.274Z,29.83
2022-08-05T10:46:46.956Z,30.00
2022-08-05T10:49:26.763Z,29.95
2022-08-05T10:52:02.823Z,30.13
2022-08-05T10:55:05.347Z,30.35
2022-08-05T10:57:33.982Z,30.66
2022-08-05T11:00:18.151Z,30.63
2022-08-05T11:03:24.834Z,30.27
2022-08-05T11:06:03.970Z,30.30
2022-08-05T11:08:38.071Z,30.53
2022-08-05T11:11:42.075Z,30.44
2022-08-05T11:14:57.590Z,29.64
2022-08-05T11:18:00.386Z,29.25
2022-08-05T11:20:45.159Z,29.29
2022-08-05T11:24:04.618Z,29.40
2022-08-05T11:26:36.773Z,29.79
2022-08-05T11:29:13.015Z,29.89
2022-08-05T11:31:53.902Z,30.25
2022-08-05T11:34:38.184Z,30.65
2022-08-05T11:37:06.240Z,31.08
2022-08-05T11:39:55.402Z,31.16
2022-08-05T11:42:28.282Z,31.07
2022-08-05T11:45:03.546Z,31.19
2022-08-05T11:47:48.480Z,31.14
2022-08-05T11:50:18.178Z,31.22
2022-08-05T11:52:46.087Z,31.39
2022-08-05T11:55:16.384Z,31.55
2022-08-05T11:58:08.504Z,31.52
2022-08-05T12:00:38.293Z,31.63
2022-08-05T12:03:29.651Z,31.69
2022-08-05T12:06:10.192Z,31.68
2022-08-05T12:08:49.889Z,31.96
2022-08-05T12:11:28.301Z,31.85
2022-08-05T12:14:08.548Z,32.01
2022-08-05T12:16:40.152Z,32.26
2022-08-05T12:20:26.465Z,32.58
2022-08-05T12:22:01.257Z,32.52
2022-08-05T12:24:28.590Z,32.36
2022-08-05T12:26:57.750Z,32.31
2022-08-05T12:29:27.302Z,32.37
2022-08-05T12:32:02.220Z,32.46
2022-08-05T12:34:37.869Z,32.28
2022-08-05T12:37:17.251Z,31.87
2022-08-05T12:39:51.949Z,31.45
2022-08-05T12:42:21.413Z,31.38
2022-08-05T12:44:52.719Z,31.79
2022-08-05T12:47:30.751Z,31.96
2022-08-05T12:50:04.037Z,32.27
2022-08-05T12:52:42.497Z,32.35
2022-08-05T12:55:25.126Z,32.52
2022-08-05T12:58:49.250Z,32.67
2022-08-05T13:02:01.452Z,32.93
2022-08-05T13:03:42.169Z,32.62
2022-08-05T13:06:17.676Z,32.59
2022-08-05T13:08:52.227Z,32.74
2022-08-05T13:11:59.992Z,32.78
2022-08-05T13:14:38.234Z,32.26
2022-08-05T13:17:16.198Z,32.13
2022-08-05T13:20:09.727Z,32.21
2022-08-05T13:22:41.220Z,31.97
2022-08-05T13:25:18.671Z,31.82
2022-08-05T13:27:50.399Z,31.90
2022-08-05T13:30:34.107Z,32.28
2022-08-05T13:33:03.920Z,32.74
2022-08-05T13:35:47.190Z,33.10
2022-08-05T13:38:30.197Z,32.65
2022-08-05T13:40:59.856Z,32.07
2022-08-05T13:43:44.737Z,32.26
2022-08-05T13:46:16.159Z,32.57
2022-08-05T13:49:00.299Z,32.95
2022-08-05T13:51:40.276Z,33.25
2022-08-05T13:54:12.620Z,33.07
2022-08-05T13:56:45.434Z,32.59
2022-08-05T13:59:24.626Z,32.54
2022-08-05T14:01:58.262Z,32.66
2022-08-05T14:04:51.377Z,32.50
2022-08-05T14:07:55.766Z,32.17
2022-08-05T14:10:28.784Z,32.11
2022-08-05T14:12:59.523Z,32.36
2022-08-05T14:16:05.438Z,32.64
2022-08-05T14:18:18.707Z,32.85
2022-08-05T14:20:54.317Z,32.85
2022-08-05T14:23:26.253Z,33.11
2022-08-05T14:25:57.930Z,33.39
2022-08-05T14:28:30.417Z,33.43
2022-08-05T14:30:58.960Z,33.23
2022-08-05T14:33:26.805Z,33.11
2022-08-05T14:35:54.956Z,33.28
2022-08-05T14:38:32.892Z,33.06
2022-08-05T14:41:07.473Z,33.11
2022-08-05T14:44:02.168Z,33.27
2022-08-05T14:46:29.144Z,33.13
2022-08-05T14:48:59.715Z,33.05
2022-08-05T14:51:35.521Z,32.69
2022-08-05T14:54:26.844Z,32.84
2022-08-05T14:56:51.062Z,32.79
2022-08-05T14:59:22.231Z,32.56
2022-08-05T15:01:50.697Z,32.54
2022-08-05T15:04:20.742Z,32.53
2022-08-05T15:06:50.814Z,32.47
2022-08-05T15:09:51.890Z,32.33
2022-08-05T15:12:09.121Z,32.33
2022-08-05T15:14:48.131Z,32.41
2022-08-05T15:17:45.961Z,32.47
2022-08-05T15:20:18.256Z,32.24
2022-08-05T15:22:54.061Z,32.34
2022-08-05T15:25:51.667Z,32.41
2022-08-05T15:28:15.805Z,32.40
2022-08-05T15:30:45.881Z,32.49
2022-08-05T15:33:56.705Z,32.56
2022-08-05T15:36:05.952Z,32.64
2022-08-05T15:38:44.411Z,32.64
2022-08-05T15:41:22.122Z,32.43
2022-08-05T15:43:51.859Z,32.40
2022-08-05T15:46:24.411Z,32.44
2022-08-05T15:48:58.664Z,32.16
2022-08-05T15:52:09.848Z,31.87
2022-08-05T15:54:17.712Z,31.88
2022-08-05T15:56:44.978Z,31.84
2022-08-05T15:59:20.293Z,31.87
2022-08-05T16:01:52.635Z,31.91
2022-08-05T16:04:25.158Z,31.77
2022-08-05T16:06:56.347Z,31.49
2022-08-05T16:09:24.890Z,30.93
2022-08-05T16:11:53.864Z,30.84
2022-08-05T16:14:22.773Z,30.87
2022-08-05T16:16:50.753Z,30.89
2022-08-05T16:20:03.307Z,30.76
2022-08-05T16:22:10.745Z,30.87
2022-08-05T16:24:41.855Z,31.00
2022-08-05T16:27:19.570Z,31.23
2022-08-05T16:30:08.462Z,31.22
2022-08-05T16:32:50.986Z,30.90
2022-08-05T16:35:18.147Z,30.82
2022-08-05T16:38:03.148Z,30.77
2022-08-05T16:40:32.803Z,30.66
2022-08-05T16:43:02.159Z,30.54
2022-08-05T16:46:04.677Z,30.53
2022-08-05T16:48:25.500Z,30.38
2022-08-05T16:50:54.084Z,30.27
2022-08-05T16:53:32.012Z,30.15
2022-08-05T16:56:10.020Z,29.80
2022-08-05T16:58:39.138Z,29.62
2022-08-05T17:01:06.813Z,29.53
2022-08-05T17:03:38.956Z,29.40
2022-08-05T17:06:06.617Z,29.22
2022-08-05T17:08:51.880Z,28.96
2022-08-05T17:11:19.894Z,28.74
2022-08-05T17:14:00.449Z,28.53
2022-08-05T17:16:38.007Z,28.43
2022-08-05T17:19:07.517Z,28.31
2022-08-05T17:21:39.713Z,28.23
2022-08-05T17:24:28.197Z,28.18
2022-08-05T17:26:58.049Z,28.11
2022-08-05T17:29:40.024Z,27.98
2022-08-05T17:32:11.310Z,27.94
2022-08-05T17:34:39.978Z,27.87
2022-08-05T17:37:29.443Z,27.53
2022-08-05T17:39:55.834Z,27.23
2022-08-05T17:42:29.963Z,26.92
2022-08-05T17:45:18.242Z,26.51
2022-08-05T17:47:54.088Z,26.01
2022-08-05T17:50:28.694Z,25.74
2022-08-05T17:52:59.149Z,25.45
2022-08-05T17:55:37.198Z,25.24
2022-08-05T17:58:11.157Z,25.01
2022-08-05T18:00:45.228Z,24.63
2022-08-05T18:03:39.305Z,24.31
2022-08-05T18:06:06.044Z,23.94
2022-08-05T18:08:38.946Z,23.73
2022-08-05T18:11:24.218Z,23.47
2022-08-05T18:14:06.756Z,23.10
2022-08-05T18:16:51.063Z,22.81
2022-08-05T18:19:23.276Z,22.68
2022-08-05T18:22:09.645Z,22.59
2022-08-05T18:24:39.607Z,22.41
2022-08-05T18:27:12.975Z,22.25
2022-08-05T18:29:51.936Z,22.05
2022-08-05T18:32:21.447Z,21.88
2022-08-05T18:34:56.431Z,21.76
2022-08-05T18:37:33.951Z,21.74
2022-08-05T18:41:03.362Z,21.66
2022-08-05T18:42:56.740Z,21.56
2022-08-05T18:45:24.806Z,21.50
2022-08-05T18:47:56.795Z,21.43
2022-08-05T18:50:46.180Z,21.30
2022-08-05T18:53:20.478Z,21.19
2022-08-05T18:55:51.749Z,21.12
2022-08-05T18:58:18.901Z,21.08
2022-08-05T19:00:56.713Z,21.02
2022-08-05T19:03:53.277Z,20.99
2022-08-05T19:06:22.107Z,20.96
2022-08-05T19:08:58.665Z,20.88
2022-08-05T19:11:37.141Z,20.87
2022-08-05T19:14:59.328Z,20.84
2022-08-05T19:17:03.043Z,20.67
2022-08-05T19:19:33.696Z,20.59
2022-08-05T19:22:01.292Z,20.55
2022-08-05T19:24:34.503Z,20.57
2022-08-05T19:27:05.636Z,20.57
2022-08-05T19:29:35.739Z,20.41
2022-08-05T19:32:11.254Z,20.35
2022-08-05T19:34:39.209Z,20.27
2022-08-05T19:37:06.949Z,20.23
2022-08-05T19:39:45.714Z,20.16
2022-08-05T19:42:35.725Z,20.01
2022-08-05T19:45:05.836Z,19.87
2022-08-05T19:47:37.898Z,19.79
2022-08-05T19:50:07.552Z,19.72
2022-08-05T19:52:37.659Z,19.73
2022-08-05T19:56:11.610Z,19.72
2022-08-05T19:58:14.447Z,19.68
2022-08-05T20:00:41.742Z,19.55
2022-08-05T20:03:09.514Z,19.44
2022-08-05T20:05:43.245Z,19.36
2022-08-05T20:08:10.701Z,19.26
2022-08-05T20:10:38.078Z,19.15
2022-08-05T20:13:10.962Z,19.14
2022-08-05T20:15:52.389Z,19.04
2022-08-05T20:18:34.053Z,19.00
2022-08-05T20:21:06.770Z,18.92
2022-08-05T20:23:39.377Z,18.89
2022-08-05T20:26:17.442Z,18.85
2022-08-05T20:28:48.696Z,18.86
2022-08-05T20:31:17.242Z,18.81
2022-08-05T20:33:45.128Z,18.75
2022-08-05T20:36:16.453Z,18.67
2022-08-05T20:38:53.981Z,18.68
2022-08-05T20:41:43.919Z,18.71
2022-08-05T20:44:29.076Z,18.60
2022-08-05T20:47:00.245Z,18.52
2022-08-05T20:49:27.747Z,18.44
2022-08-05T20:51:57.670Z,18.42
2022-08-05T20:54:43.260Z,18.46
2022-08-05T20:57:24.780Z,18.57
2022-08-05T21:00:19.482Z,18.34
2022-08-05T21:02:56.933Z,18.16
2022-08-05T21:05:24.923Z,18.01
2022-08-05T21:07:52.617Z,17.99
2022-08-05T21:10:21.554Z,18.04
2022-08-05T21:12:55.510Z,18.06
2022-08-05T21:15:26.066Z,18.08
2022-08-05T21:18:01.980Z,17.95
2022-08-05T21:20:32.758Z,17.99
2022-08-05T21:23:00.977Z,17.87
2022-08-05T21:25:33.758Z,17.77
2022-08-05T21:28:03.500Z,17.75
2022-08-05T21:30:31.716Z,17.77
2022-08-05T21:33:01.783Z,17.80
2022-08-05T21:35:55.523Z,17.70
2022-08-05T21:38:19.223Z,17.64
2022-08-05T21:40:46.671Z,17.57
2022-08-05T21:43:24.073Z,17.50
2022-08-05T21:45:57.561Z,17.41
2022-08-05T21:48:28.951Z,17.35
2022-08-05T21:50:59.028Z,17.29
2022-08-05T21:53:27.532Z,17.22
2022-08-05T21:56:09.682Z,17.14
2022-08-05T21:58:57.178Z,17.11
2022-08-05T22:01:26.449Z,17.11
2022-08-05T22:03:54.503Z,17.12
2022-08-05T22:06:37.032Z,17.18
2022-08-05T22:09:13.963Z,17.15
2022-08-05T22:11:43.724Z,17.07
2022-08-05T22:14:33.136Z,17.16
2022-08-05T22:17:05.311Z,17.25
2022-08-05T22:20:01.158Z,17.24
2022-08-05T22:22:26.836Z,17.15
2022-08-05T22:25:21.357Z,17.14
2022-08-05T22:28:09.781Z,17.03
2022-08-05T22:30:55.359Z,16.96
2022-08-05T22:33:57.134Z,17.03
2022-08-05T22:36:14.662Z,16.89
2022-08-05T22:38:48.712Z,16.88
2022-08-05T22:41:26.436Z,16.86
2022-08-05T22:44:06.737Z,16.93
2022-08-05T22:46:33.884Z,16.88
2022-08-05T22:49:12.231Z,16.79
2022-08-05T22:52:05.486Z,16.70
2022-08-05T22:54:38.889Z,16.52
2022-08-05T22:57:06.980Z,16.39
2022-08-05T22:59:43.917Z,16.21
2022-08-05T23:02:13.697Z,16.03
2022-08-05T23:04:51.339Z,15.82
2022-08-05T23:07:22.087Z,15.59
2022-08-05T23:09:58.230Z,15.49
2022-08-05T23:12:32.538Z,15.41
2022-08-05T23:15:09.041Z,15.31
2022-08-05T23:17:37.477Z,15.25
2022-08-05T23:20:17.970Z,15.18
2022-08-05T23:22:47.123Z,15.11
2022-08-05T23:25:51.552Z,15.11
2022-08-05T23:28:07.657Z,15.10
2022-08-05T23:30:40.194Z,15.14
2022-08-05T23:33:16.279Z,15.05
2022-08-05T23:35:50.977Z,15.06
2022-08-05T23:38:18.399Z,14.99
2022-08-05T23:40:49.786Z,14.96
2022-08-05T23:43:25.387Z,14.87
2022-08-05T23:46:21.306Z,14.96
2022-08-05T23:49:00.942Z,14.99
2022-08-05T23:51:53.683Z,14.94
2022-08-05T23:54:25.508Z,14.82
2022-08-05T23:57:03.393Z,14.78
2022-08-05T23:59:37.668Z,14.82
